sensor_id;sensor_type;location;lat;lon;timestamp;P1;durP1;ratioP1;P2;durP2;ratioP2
44036;SDS011;62488;-37.670;-63.532;2023-04-24T00:01:58;11.88;;;4.10;;
44036;SDS011;62488;-37.670;-63.532;2023-04-24T00:04:25;10.90;;;5.47;;
44036;SDS011;62488;-37.670;-63.532;2023-04-24T00:06:52;17.45;;;5.13;;
44036;SDS011;62488;-37.670;-63.532;2023-04-24T00:09:25;21.15;;;6.15;;
44036;SDS011;62488;-37.670;-63.532;2023-04-24T00:11:52;16.33;;;5.20;;
44036;SDS011;62488;-37.670;-63.532;2023-04-24T00:14:19;22.80;;;5.32;;
44036;SDS011;62488;-37.670;-63.532;2023-04-24T00:16:47;22.48;;;5.25;;
44036;SDS011;62488;-37.670;-63.532;2023-04-24T00:19:14;24.85;;;5.25;;
44036;SDS011;62488;-37.670;-63.532;2023-04-24T00:21:41;23.83;;;5.72;;
44036;SDS011;62488;-37.670;-63.532;2023-04-24T00:24:09;18.83;;;5.30;;
44036;SDS011;62488;-37.670;-63.532;2023-04-24T00:26:36;11.55;;;4.75;;
44036;SDS011;62488;-37.670;-63.532;2023-04-24T00:29:03;21.58;;;4.80;;
44036;SDS011;62488;-37.670;-63.532;2023-04-24T00:31:30;20.00;;;4.88;;
44036;SDS011;62488;-37.670;-63.532;2023-04-24T00:34:00;14.43;;;4.75;;
44036;SDS011;62488;-37.670;-63.532;2023-04-24T00:36:28;14.93;;;4.90;;
44036;SDS011;62488;-37.670;-63.532;2023-04-24T00:38:56;19.45;;;4.93;;
44036;SDS011;62488;-37.670;-63.532;2023-04-24T00:41:24;22.48;;;5.45;;
44036;SDS011;62488;-37.670;-63.532;2023-04-24T00:43:52;14.50;;;6.03;;
44036;SDS011;62488;-37.670;-63.532;2023-04-24T00:46:19;20.27;;;5.07;;
44036;SDS011;62488;-37.670;-63.532;2023-04-24T00:48:47;18.42;;;5.70;;
44036;SDS011;62488;-37.670;-63.532;2023-04-24T00:51:15;21.63;;;6.05;;
44036;SDS011;62488;-37.670;-63.532;2023-04-24T00:53:42;23.67;;;6.75;;
44036;SDS011;62488;-37.670;-63.532;2023-04-24T00:56:09;15.38;;;5.75;;
44036;SDS011;62488;-37.670;-63.532;2023-04-24T00:58:36;21.70;;;5.95;;
44036;SDS011;62488;-37.670;-63.532;2023-04-24T01:01:04;17.05;;;6.45;;
44036;SDS011;62488;-37.670;-63.532;2023-04-24T01:03:32;14.98;;;6.65;;
44036;SDS011;62488;-37.670;-63.532;2023-04-24T01:06:02;20.95;;;6.25;;
44036;SDS011;62488;-37.670;-63.532;2023-04-24T01:08:30;21.30;;;5.82;;
44036;SDS011;62488;-37.670;-63.532;2023-04-24T01:10:58;11.10;;;5.80;;
44036;SDS011;62488;-37.670;-63.532;2023-04-24T01:13:26;19.73;;;6.07;;
44036;SDS011;62488;-37.670;-63.532;2023-04-24T01:15:53;14.07;;;5.95;;
44036;SDS011;62488;-37.670;-63.532;2023-04-24T01:18:20;18.65;;;8.10;;
44036;SDS011;62488;-37.670;-63.532;2023-04-24T01:20:47;13.60;;;6.03;;
44036;SDS011;62488;-37.670;-63.532;2023-04-24T01:23:19;17.63;;;6.43;;
44036;SDS011;62488;-37.670;-63.532;2023-04-24T01:25:46;17.75;;;6.80;;
44036;SDS011;62488;-37.670;-63.532;2023-04-24T01:28:14;15.75;;;6.65;;
44036;SDS011;62488;-37.670;-63.532;2023-04-24T01:30:41;24.75;;;5.68;;
44036;SDS011;62488;-37.670;-63.532;2023-04-24T01:33:09;14.48;;;6.88;;
44036;SDS011;62488;-37.670;-63.532;2023-04-24T01:35:37;14.73;;;5.65;;
44036;SDS011;62488;-37.670;-63.532;2023-04-24T01:38:04;11.75;;;5.72;;
44036;SDS011;62488;-37.670;-63.532;2023-04-24T01:40:32;22.20;;;7.05;;
44036;SDS011;62488;-37.670;-63.532;2023-04-24T01:42:59;13.50;;;6.13;;
44036;SDS011;62488;-37.670;-63.532;2023-04-24T01:45:26;18.73;;;6.70;;
44036;SDS011;62488;-37.670;-63.532;2023-04-24T01:47:53;20.73;;;6.70;;
44036;SDS011;62488;-37.670;-63.532;2023-04-24T01:50:21;21.38;;;6.53;;
44036;SDS011;62488;-37.670;-63.532;2023-04-24T01:52:48;15.30;;;8.52;;
44036;SDS011;62488;-37.670;-63.532;2023-04-24T01:55:15;15.32;;;6.15;;
44036;SDS011;62488;-37.670;-63.532;2023-04-24T01:57:42;12.95;;;6.38;;
44036;SDS011;62488;-37.670;-63.532;2023-04-24T02:00:09;19.23;;;6.60;;
44036;SDS011;62488;-37.670;-63.532;2023-04-24T02:02:38;20.00;;;6.38;;
44036;SDS011;62488;-37.670;-63.532;2023-04-24T02:05:06;18.07;;;5.93;;
44036;SDS011;62488;-37.670;-63.532;2023-04-24T02:07:34;14.77;;;7.18;;
44036;SDS011;62488;-37.670;-63.532;2023-04-24T02:10:01;19.83;;;6.40;;
44036;SDS011;62488;-37.670;-63.532;2023-04-24T02:12:29;17.17;;;6.50;;
44036;SDS011;62488;-37.670;-63.532;2023-04-24T02:14:56;20.52;;;6.72;;
44036;SDS011;62488;-37.670;-63.532;2023-04-24T02:17:23;15.30;;;6.07;;
44036;SDS011;62488;-37.670;-63.532;2023-04-24T02:19:51;15.85;;;6.13;;
44036;SDS011;62488;-37.670;-63.532;2023-04-24T02:22:18;21.83;;;7.05;;
44036;SDS011;62488;-37.670;-63.532;2023-04-24T02:24:47;24.17;;;6.88;;
44036;SDS011;62488;-37.670;-63.532;2023-04-24T02:27:15;15.73;;;6.00;;
44036;SDS011;62488;-37.670;-63.532;2023-04-24T02:29:42;14.38;;;5.88;;
44036;SDS011;62488;-37.670;-63.532;2023-04-24T02:32:09;13.23;;;6.57;;
44036;SDS011;62488;-37.670;-63.532;2023-04-24T02:34:37;18.27;;;6.40;;
44036;SDS011;62488;-37.670;-63.532;2023-04-24T02:37:04;21.77;;;6.13;;
44036;SDS011;62488;-37.670;-63.532;2023-04-24T02:39:33;15.80;;;5.65;;
44036;SDS011;62488;-37.670;-63.532;2023-04-24T02:42:00;19.10;;;5.88;;
44036;SDS011;62488;-37.670;-63.532;2023-04-24T02:44:27;15.00;;;5.78;;
44036;SDS011;62488;-37.670;-63.532;2023-04-24T02:46:54;19.05;;;6.78;;
44036;SDS011;62488;-37.670;-63.532;2023-04-24T02:49:21;14.35;;;6.18;;
44036;SDS011;62488;-37.670;-63.532;2023-04-24T02:51:48;15.98;;;5.57;;
44036;SDS011;62488;-37.670;-63.532;2023-04-24T02:54:15;24.45;;;5.53;;
44036;SDS011;62488;-37.670;-63.532;2023-04-24T02:56:42;12.95;;;5.68;;
44036;SDS011;62488;-37.670;-63.532;2023-04-24T02:59:09;21.38;;;7.80;;
44036;SDS011;62488;-37.670;-63.532;2023-04-24T03:01:36;14.18;;;6.38;;
44036;SDS011;62488;-37.670;-63.532;2023-04-24T03:04:04;12.20;;;5.05;;
44036;SDS011;62488;-37.670;-63.532;2023-04-24T03:06:31;12.25;;;5.55;;
44036;SDS011;62488;-37.670;-63.532;2023-04-24T03:08:58;21.58;;;6.95;;
44036;SDS011;62488;-37.670;-63.532;2023-04-24T03:11:25;13.73;;;5.93;;
44036;SDS011;62488;-37.670;-63.532;2023-04-24T03:13:52;16.23;;;6.43;;
44036;SDS011;62488;-37.670;-63.532;2023-04-24T03:16:19;19.23;;;6.97;;
44036;SDS011;62488;-37.670;-63.532;2023-04-24T03:18:46;17.95;;;7.22;;
44036;SDS011;62488;-37.670;-63.532;2023-04-24T03:21:13;23.23;;;6.72;;
44036;SDS011;62488;-37.670;-63.532;2023-04-24T03:23:40;13.32;;;6.25;;
44036;SDS011;62488;-37.670;-63.532;2023-04-24T03:26:07;23.55;;;6.90;;
44036;SDS011;62488;-37.670;-63.532;2023-04-24T03:28:35;13.88;;;6.18;;
44036;SDS011;62488;-37.670;-63.532;2023-04-24T03:31:03;14.57;;;6.60;;
44036;SDS011;62488;-37.670;-63.532;2023-04-24T03:33:30;11.00;;;6.03;;
44036;SDS011;62488;-37.670;-63.532;2023-04-24T03:35:57;11.45;;;6.97;;
44036;SDS011;62488;-37.670;-63.532;2023-04-24T03:38:24;15.93;;;6.47;;
44036;SDS011;62488;-37.670;-63.532;2023-04-24T03:40:54;13.02;;;6.70;;
44036;SDS011;62488;-37.670;-63.532;2023-04-24T03:43:21;11.90;;;7.20;;
44036;SDS011;62488;-37.670;-63.532;2023-04-24T03:45:49;19.55;;;7.00;;
44036;SDS011;62488;-37.670;-63.532;2023-04-24T03:48:16;14.27;;;6.70;;
44036;SDS011;62488;-37.670;-63.532;2023-04-24T03:50:43;18.88;;;6.60;;
44036;SDS011;62488;-37.670;-63.532;2023-04-24T03:53:10;18.73;;;7.20;;
44036;SDS011;62488;-37.670;-63.532;2023-04-24T03:55:37;23.42;;;7.80;;
44036;SDS011;62488;-37.670;-63.532;2023-04-24T03:58:04;22.88;;;7.72;;
44036;SDS011;62488;-37.670;-63.532;2023-04-24T04:00:31;16.73;;;7.47;;
44036;SDS011;62488;-37.670;-63.532;2023-04-24T04:02:59;14.60;;;7.45;;
44036;SDS011;62488;-37.670;-63.532;2023-04-24T04:05:26;14.27;;;7.68;;
44036;SDS011;62488;-37.670;-63.532;2023-04-24T04:07:54;18.17;;;7.88;;
44036;SDS011;62488;-37.670;-63.532;2023-04-24T04:10:20;15.50;;;8.27;;
44036;SDS011;62488;-37.670;-63.532;2023-04-24T04:12:48;19.70;;;6.88;;
44036;SDS011;62488;-37.670;-63.532;2023-04-24T04:15:15;24.00;;;7.90;;
44036;SDS011;62488;-37.670;-63.532;2023-04-24T04:17:42;17.95;;;7.57;;
44036;SDS011;62488;-37.670;-63.532;2023-04-24T04:20:09;18.83;;;8.00;;
44036;SDS011;62488;-37.670;-63.532;2023-04-24T04:22:37;14.82;;;7.07;;
44036;SDS011;62488;-37.670;-63.532;2023-04-24T04:25:04;19.00;;;7.40;;
44036;SDS011;62488;-37.670;-63.532;2023-04-24T04:27:32;16.98;;;9.13;;
44036;SDS011;62488;-37.670;-63.532;2023-04-24T04:29:59;24.42;;;7.65;;
44036;SDS011;62488;-37.670;-63.532;2023-04-24T04:32:31;20.10;;;8.02;;
44036;SDS011;62488;-37.670;-63.532;2023-04-24T04:35:01;16.70;;;8.32;;
44036;SDS011;62488;-37.670;-63.532;2023-04-24T04:37:29;20.80;;;8.02;;
44036;SDS011;62488;-37.670;-63.532;2023-04-24T04:39:57;15.00;;;8.10;;
44036;SDS011;62488;-37.670;-63.532;2023-04-24T04:42:24;17.23;;;7.97;;
44036;SDS011;62488;-37.670;-63.532;2023-04-24T04:44:53;20.13;;;9.02;;
44036;SDS011;62488;-37.670;-63.532;2023-04-24T04:47:21;15.18;;;6.68;;
44036;SDS011;62488;-37.670;-63.532;2023-04-24T04:49:49;21.20;;;9.18;;
44036;SDS011;62488;-37.670;-63.532;2023-04-24T04:52:19;18.77;;;8.75;;
44036;SDS011;62488;-37.670;-63.532;2023-04-24T04:54:50;19.88;;;8.07;;
44036;SDS011;62488;-37.670;-63.532;2023-04-24T04:57:17;24.10;;;8.68;;
44036;SDS011;62488;-37.670;-63.532;2023-04-24T04:59:44;18.48;;;8.50;;
44036;SDS011;62488;-37.670;-63.532;2023-04-24T05:02:11;21.55;;;8.88;;
44036;SDS011;62488;-37.670;-63.532;2023-04-24T05:04:38;20.88;;;9.00;;
44036;SDS011;62488;-37.670;-63.532;2023-04-24T05:07:05;18.25;;;8.85;;
44036;SDS011;62488;-37.670;-63.532;2023-04-24T05:09:33;14.52;;;8.82;;
44036;SDS011;62488;-37.670;-63.532;2023-04-24T05:12:00;23.73;;;9.45;;
44036;SDS011;62488;-37.670;-63.532;2023-04-24T05:14:27;21.02;;;9.05;;
44036;SDS011;62488;-37.670;-63.532;2023-04-24T05:16:56;29.00;;;9.68;;
44036;SDS011;62488;-37.670;-63.532;2023-04-24T05:19:22;17.50;;;10.25;;
44036;SDS011;62488;-37.670;-63.532;2023-04-24T05:21:50;21.33;;;9.02;;
44036;SDS011;62488;-37.670;-63.532;2023-04-24T05:24:17;19.77;;;8.95;;
44036;SDS011;62488;-37.670;-63.532;2023-04-24T05:26:44;17.23;;;9.30;;
44036;SDS011;62488;-37.670;-63.532;2023-04-24T05:29:11;16.65;;;9.27;;
44036;SDS011;62488;-37.670;-63.532;2023-04-24T05:31:38;27.17;;;10.40;;
44036;SDS011;62488;-37.670;-63.532;2023-04-24T05:34:05;18.17;;;8.85;;
44036;SDS011;62488;-37.670;-63.532;2023-04-24T05:36:32;18.45;;;8.75;;
44036;SDS011;62488;-37.670;-63.532;2023-04-24T05:38:59;22.80;;;9.80;;
44036;SDS011;62488;-37.670;-63.532;2023-04-24T05:41:26;20.15;;;9.23;;
44036;SDS011;62488;-37.670;-63.532;2023-04-24T05:43:53;18.75;;;7.93;;
44036;SDS011;62488;-37.670;-63.532;2023-04-24T05:46:20;15.25;;;8.90;;
44036;SDS011;62488;-37.670;-63.532;2023-04-24T05:48:47;25.45;;;10.20;;
44036;SDS011;62488;-37.670;-63.532;2023-04-24T05:51:14;17.23;;;9.75;;
44036;SDS011;62488;-37.670;-63.532;2023-04-24T05:53:41;21.50;;;11.15;;
44036;SDS011;62488;-37.670;-63.532;2023-04-24T05:56:08;23.70;;;10.00;;
44036;SDS011;62488;-37.670;-63.532;2023-04-24T05:58:35;22.63;;;10.40;;
44036;SDS011;62488;-37.670;-63.532;2023-04-24T06:01:03;23.25;;;12.13;;
44036;SDS011;62488;-37.670;-63.532;2023-04-24T06:03:30;22.02;;;11.18;;
44036;SDS011;62488;-37.670;-63.532;2023-04-24T06:05:57;20.63;;;9.73;;
44036;SDS011;62488;-37.670;-63.532;2023-04-24T06:08:24;28.80;;;10.82;;
44036;SDS011;62488;-37.670;-63.532;2023-04-24T06:10:51;26.42;;;11.85;;
44036;SDS011;62488;-37.670;-63.532;2023-04-24T06:13:18;22.85;;;11.32;;
44036;SDS011;62488;-37.670;-63.532;2023-04-24T06:15:45;20.15;;;10.75;;
44036;SDS011;62488;-37.670;-63.532;2023-04-24T06:18:12;19.00;;;11.27;;
44036;SDS011;62488;-37.670;-63.532;2023-04-24T06:20:39;21.25;;;11.57;;
44036;SDS011;62488;-37.670;-63.532;2023-04-24T06:23:06;22.42;;;12.30;;
44036;SDS011;62488;-37.670;-63.532;2023-04-24T06:25:33;34.65;;;11.27;;
44036;SDS011;62488;-37.670;-63.532;2023-04-24T06:28:00;19.77;;;11.60;;
44036;SDS011;62488;-37.670;-63.532;2023-04-24T06:30:28;24.58;;;11.73;;
44036;SDS011;62488;-37.670;-63.532;2023-04-24T06:32:55;18.08;;;11.05;;
44036;SDS011;62488;-37.670;-63.532;2023-04-24T06:35:22;28.90;;;12.00;;
44036;SDS011;62488;-37.670;-63.532;2023-04-24T06:37:51;22.98;;;11.05;;
44036;SDS011;62488;-37.670;-63.532;2023-04-24T06:40:18;29.88;;;13.98;;
44036;SDS011;62488;-37.670;-63.532;2023-04-24T06:42:45;25.75;;;12.27;;
44036;SDS011;62488;-37.670;-63.532;2023-04-24T06:45:12;19.02;;;12.07;;
44036;SDS011;62488;-37.670;-63.532;2023-04-24T06:47:39;28.77;;;13.70;;
44036;SDS011;62488;-37.670;-63.532;2023-04-24T06:50:06;25.90;;;12.45;;
44036;SDS011;62488;-37.670;-63.532;2023-04-24T06:52:33;31.70;;;13.23;;
44036;SDS011;62488;-37.670;-63.532;2023-04-24T06:55:01;22.48;;;14.15;;
44036;SDS011;62488;-37.670;-63.532;2023-04-24T06:57:29;36.72;;;14.35;;
44036;SDS011;62488;-37.670;-63.532;2023-04-24T06:59:56;21.95;;;12.30;;
44036;SDS011;62488;-37.670;-63.532;2023-04-24T07:02:23;22.17;;;12.40;;
44036;SDS011;62488;-37.670;-63.532;2023-04-24T07:04:50;23.83;;;12.82;;
44036;SDS011;62488;-37.670;-63.532;2023-04-24T07:07:18;25.27;;;15.05;;
44036;SDS011;62488;-37.670;-63.532;2023-04-24T07:09:45;26.27;;;13.50;;
44036;SDS011;62488;-37.670;-63.532;2023-04-24T07:12:12;22.95;;;11.80;;
44036;SDS011;62488;-37.670;-63.532;2023-04-24T07:14:39;23.45;;;13.23;;
44036;SDS011;62488;-37.670;-63.532;2023-04-24T07:17:08;25.85;;;14.70;;
44036;SDS011;62488;-37.670;-63.532;2023-04-24T07:19:35;26.38;;;14.13;;
44036;SDS011;62488;-37.670;-63.532;2023-04-24T07:22:02;27.73;;;15.55;;
44036;SDS011;62488;-37.670;-63.532;2023-04-24T07:24:32;34.03;;;15.13;;
44036;SDS011;62488;-37.670;-63.532;2023-04-24T07:26:59;24.50;;;16.63;;
44036;SDS011;62488;-37.670;-63.532;2023-04-24T07:29:29;28.17;;;15.32;;
44036;SDS011;62488;-37.670;-63.532;2023-04-24T07:31:56;19.60;;;14.38;;
44036;SDS011;62488;-37.670;-63.532;2023-04-24T07:34:23;26.05;;;14.98;;
44036;SDS011;62488;-37.670;-63.532;2023-04-24T07:36:50;27.52;;;15.23;;
44036;SDS011;62488;-37.670;-63.532;2023-04-24T07:39:17;22.85;;;13.60;;
44036;SDS011;62488;-37.670;-63.532;2023-04-24T07:41:45;28.73;;;16.77;;
44036;SDS011;62488;-37.670;-63.532;2023-04-24T07:44:12;21.70;;;15.85;;
44036;SDS011;62488;-37.670;-63.532;2023-04-24T07:46:39;31.02;;;15.50;;
44036;SDS011;62488;-37.670;-63.532;2023-04-24T07:49:06;24.00;;;15.23;;
44036;SDS011;62488;-37.670;-63.532;2023-04-24T07:51:34;26.65;;;16.48;;
44036;SDS011;62488;-37.670;-63.532;2023-04-24T07:54:06;32.42;;;15.88;;
44036;SDS011;62488;-37.670;-63.532;2023-04-24T07:56:33;31.50;;;14.18;;
44036;SDS011;62488;-37.670;-63.532;2023-04-24T07:59:04;26.42;;;15.38;;
44036;SDS011;62488;-37.670;-63.532;2023-04-24T08:01:31;35.88;;;17.08;;
44036;SDS011;62488;-37.670;-63.532;2023-04-24T08:03:58;32.50;;;15.48;;
44036;SDS011;62488;-37.670;-63.532;2023-04-24T08:06:25;26.90;;;17.73;;
44036;SDS011;62488;-37.670;-63.532;2023-04-24T08:08:57;30.92;;;16.88;;
44036;SDS011;62488;-37.670;-63.532;2023-04-24T08:11:26;32.13;;;20.08;;
44036;SDS011;62488;-37.670;-63.532;2023-04-24T08:13:53;26.98;;;16.00;;
44036;SDS011;62488;-37.670;-63.532;2023-04-24T08:16:20;27.33;;;15.95;;
44036;SDS011;62488;-37.670;-63.532;2023-04-24T08:18:49;33.22;;;17.00;;
44036;SDS011;62488;-37.670;-63.532;2023-04-24T08:21:16;30.75;;;18.15;;
44036;SDS011;62488;-37.670;-63.532;2023-04-24T08:23:47;29.45;;;17.58;;
44036;SDS011;62488;-37.670;-63.532;2023-04-24T08:26:14;40.22;;;18.35;;
44036;SDS011;62488;-37.670;-63.532;2023-04-24T08:28:41;35.13;;;18.98;;
44036;SDS011;62488;-37.670;-63.532;2023-04-24T08:31:09;33.55;;;17.77;;
44036;SDS011;62488;-37.670;-63.532;2023-04-24T08:33:36;29.33;;;17.13;;
44036;SDS011;62488;-37.670;-63.532;2023-04-24T08:36:03;28.00;;;16.95;;
44036;SDS011;62488;-37.670;-63.532;2023-04-24T08:38:31;29.42;;;15.95;;
44036;SDS011;62488;-37.670;-63.532;2023-04-24T08:41:00;22.38;;;15.80;;
44036;SDS011;62488;-37.670;-63.532;2023-04-24T08:43:30;33.58;;;18.90;;
44036;SDS011;62488;-37.670;-63.532;2023-04-24T08:45:59;22.95;;;15.93;;
44036;SDS011;62488;-37.670;-63.532;2023-04-24T08:48:27;26.15;;;16.98;;
44036;SDS011;62488;-37.670;-63.532;2023-04-24T08:50:54;49.50;;;42.17;;
44036;SDS011;62488;-37.670;-63.532;2023-04-24T08:53:23;54.72;;;37.05;;
44036;SDS011;62488;-37.670;-63.532;2023-04-24T08:55:51;37.80;;;28.20;;
44036;SDS011;62488;-37.670;-63.532;2023-04-24T08:58:22;39.75;;;24.30;;
44036;SDS011;62488;-37.670;-63.532;2023-04-24T09:00:56;34.92;;;23.67;;
44036;SDS011;62488;-37.670;-63.532;2023-04-24T09:03:24;31.35;;;20.48;;
44036;SDS011;62488;-37.670;-63.532;2023-04-24T09:05:55;31.60;;;20.77;;
44036;SDS011;62488;-37.670;-63.532;2023-04-24T09:08:24;33.78;;;19.17;;
44036;SDS011;62488;-37.670;-63.532;2023-04-24T09:10:51;31.70;;;21.75;;
44036;SDS011;62488;-37.670;-63.532;2023-04-24T09:13:22;32.38;;;18.63;;
44036;SDS011;62488;-37.670;-63.532;2023-04-24T09:15:49;27.83;;;18.33;;
44036;SDS011;62488;-37.670;-63.532;2023-04-24T09:18:16;25.92;;;18.17;;
44036;SDS011;62488;-37.670;-63.532;2023-04-24T09:23:29;32.60;;;19.63;;
44036;SDS011;62488;-37.670;-63.532;2023-04-24T09:25:58;32.28;;;19.40;;
44036;SDS011;62488;-37.670;-63.532;2023-04-24T09:28:35;39.58;;;19.83;;
44036;SDS011;62488;-37.670;-63.532;2023-04-24T09:31:04;30.40;;;19.45;;
44036;SDS011;62488;-37.670;-63.532;2023-04-24T09:33:36;33.03;;;17.88;;
44036;SDS011;62488;-37.670;-63.532;2023-04-24T09:36:03;33.13;;;17.35;;
44036;SDS011;62488;-37.670;-63.532;2023-04-24T09:38:35;26.20;;;17.70;;
44036;SDS011;62488;-37.670;-63.532;2023-04-24T09:41:04;33.17;;;18.02;;
44036;SDS011;62488;-37.670;-63.532;2023-04-24T09:43:33;35.78;;;19.20;;
44036;SDS011;62488;-37.670;-63.532;2023-04-24T09:46:05;32.78;;;16.80;;
44036;SDS011;62488;-37.670;-63.532;2023-04-24T09:48:34;47.17;;;18.70;;
44036;SDS011;62488;-37.670;-63.532;2023-04-24T09:51:04;26.10;;;17.83;;
44036;SDS011;62488;-37.670;-63.532;2023-04-24T09:53:38;46.75;;;18.50;;
44036;SDS011;62488;-37.670;-63.532;2023-04-24T09:56:08;26.70;;;17.25;;
44036;SDS011;62488;-37.670;-63.532;2023-04-24T09:58:38;33.50;;;17.63;;
44036;SDS011;62488;-37.670;-63.532;2023-04-24T10:01:05;34.30;;;19.67;;
44036;SDS011;62488;-37.670;-63.532;2023-04-24T10:03:33;33.83;;;20.25;;
44036;SDS011;62488;-37.670;-63.532;2023-04-24T10:06:01;38.80;;;19.42;;
44036;SDS011;62488;-37.670;-63.532;2023-04-24T10:08:34;34.85;;;19.55;;
44036;SDS011;62488;-37.670;-63.532;2023-04-24T10:11:02;46.58;;;20.08;;
44036;SDS011;62488;-37.670;-63.532;2023-04-24T10:13:30;27.77;;;17.60;;
44036;SDS011;62488;-37.670;-63.532;2023-04-24T10:16:00;40.63;;;20.20;;
44036;SDS011;62488;-37.670;-63.532;2023-04-24T10:18:27;35.78;;;18.30;;
44036;SDS011;62488;-37.670;-63.532;2023-04-24T10:20:55;32.17;;;17.50;;
44036;SDS011;62488;-37.670;-63.532;2023-04-24T10:23:23;26.33;;;18.33;;
44036;SDS011;62488;-37.670;-63.532;2023-04-24T10:25:51;33.00;;;16.35;;
44036;SDS011;62488;-37.670;-63.532;2023-04-24T10:28:19;30.83;;;16.23;;
44036;SDS011;62488;-37.670;-63.532;2023-04-24T10:30:48;29.17;;;15.18;;
44036;SDS011;62488;-37.670;-63.532;2023-04-24T10:33:17;31.00;;;16.43;;
44036;SDS011;62488;-37.670;-63.532;2023-04-24T10:35:45;25.05;;;13.82;;
44036;SDS011;62488;-37.670;-63.532;2023-04-24T10:38:15;23.13;;;14.95;;
44036;SDS011;62488;-37.670;-63.532;2023-04-24T10:40:56;32.95;;;16.00;;
44036;SDS011;62488;-37.670;-63.532;2023-04-24T10:43:33;29.30;;;15.20;;
44036;SDS011;62488;-37.670;-63.532;2023-04-24T10:46:01;30.17;;;15.38;;
44036;SDS011;62488;-37.670;-63.532;2023-04-24T10:48:30;30.77;;;14.48;;
44036;SDS011;62488;-37.670;-63.532;2023-04-24T10:50:57;30.55;;;14.98;;
44036;SDS011;62488;-37.670;-63.532;2023-04-24T10:53:29;35.50;;;18.35;;
44036;SDS011;62488;-37.670;-63.532;2023-04-24T10:55:57;30.65;;;16.77;;
44036;SDS011;62488;-37.670;-63.532;2023-04-24T10:58:35;23.98;;;14.93;;
44036;SDS011;62488;-37.670;-63.532;2023-04-24T11:01:04;35.03;;;17.40;;
44036;SDS011;62488;-37.670;-63.532;2023-04-24T11:03:32;33.95;;;14.75;;
44036;SDS011;62488;-37.670;-63.532;2023-04-24T11:16:27;32.03;;;15.90;;
44036;SDS011;62488;-37.670;-63.532;2023-04-24T11:19:25;38.30;;;15.77;;
44036;SDS011;62488;-37.670;-63.532;2023-04-24T11:27:16;31.35;;;16.35;;
44036;SDS011;62488;-37.670;-63.532;2023-04-24T11:32:26;33.15;;;13.82;;
44036;SDS011;62488;-37.670;-63.532;2023-04-24T11:40:02;32.80;;;14.45;;
44036;SDS011;62488;-37.670;-63.532;2023-04-24T11:42:34;32.40;;;12.63;;
44036;SDS011;62488;-37.670;-63.532;2023-04-24T11:45:12;30.08;;;14.02;;
44036;SDS011;62488;-37.670;-63.532;2023-04-24T11:47:52;31.67;;;13.52;;
44036;SDS011;62488;-37.670;-63.532;2023-04-24T11:50:21;32.28;;;13.63;;
44036;SDS011;62488;-37.670;-63.532;2023-04-24T11:52:51;24.33;;;12.63;;
44036;SDS011;62488;-37.670;-63.532;2023-04-24T11:55:38;25.02;;;11.40;;
44036;SDS011;62488;-37.670;-63.532;2023-04-24T11:58:05;27.27;;;11.23;;
44036;SDS011;62488;-37.670;-63.532;2023-04-24T12:00:32;18.50;;;10.43;;
44036;SDS011;62488;-37.670;-63.532;2023-04-24T12:03:09;26.77;;;10.88;;
44036;SDS011;62488;-37.670;-63.532;2023-04-24T12:05:37;20.33;;;9.73;;
44036;SDS011;62488;-37.670;-63.532;2023-04-24T12:08:05;24.73;;;9.73;;
44036;SDS011;62488;-37.670;-63.532;2023-04-24T12:10:33;18.95;;;7.97;;
44036;SDS011;62488;-37.670;-63.532;2023-04-24T12:13:00;25.63;;;9.48;;
44036;SDS011;62488;-37.670;-63.532;2023-04-24T12:15:27;23.13;;;7.75;;
44036;SDS011;62488;-37.670;-63.532;2023-04-24T12:17:55;19.25;;;7.95;;
44036;SDS011;62488;-37.670;-63.532;2023-04-24T12:22:56;17.42;;;7.07;;
44036;SDS011;62488;-37.670;-63.532;2023-04-24T12:25:25;20.63;;;7.25;;
44036;SDS011;62488;-37.670;-63.532;2023-04-24T12:30:31;16.55;;;6.43;;
44036;SDS011;62488;-37.670;-63.532;2023-04-24T12:33:02;16.25;;;5.97;;
44036;SDS011;62488;-37.670;-63.532;2023-04-24T12:35:30;15.38;;;6.28;;
44036;SDS011;62488;-37.670;-63.532;2023-04-24T12:38:21;22.45;;;6.75;;
44036;SDS011;62488;-37.670;-63.532;2023-04-24T12:41:02;15.85;;;5.55;;
44036;SDS011;62488;-37.670;-63.532;2023-04-24T12:43:29;15.93;;;5.55;;
44036;SDS011;62488;-37.670;-63.532;2023-04-24T12:45:57;16.45;;;6.03;;
44036;SDS011;62488;-37.670;-63.532;2023-04-24T12:48:28;13.10;;;5.47;;
44036;SDS011;62488;-37.670;-63.532;2023-04-24T12:50:59;14.68;;;5.78;;
44036;SDS011;62488;-37.670;-63.532;2023-04-24T12:53:27;21.08;;;6.63;;
44036;SDS011;62488;-37.670;-63.532;2023-04-24T12:55:55;13.73;;;4.72;;
44036;SDS011;62488;-37.670;-63.532;2023-04-24T12:58:22;18.40;;;5.85;;
44036;SDS011;62488;-37.670;-63.532;2023-04-24T13:00:50;15.27;;;5.10;;
44036;SDS011;62488;-37.670;-63.532;2023-04-24T13:03:17;12.38;;;5.05;;
44036;SDS011;62488;-37.670;-63.532;2023-04-24T13:05:45;15.18;;;4.88;;
44036;SDS011;62488;-37.670;-63.532;2023-04-24T13:08:12;14.95;;;5.68;;
44036;SDS011;62488;-37.670;-63.532;2023-04-24T13:10:39;11.45;;;4.80;;
44036;SDS011;62488;-37.670;-63.532;2023-04-24T13:13:06;12.35;;;4.70;;
44036;SDS011;62488;-37.670;-63.532;2023-04-24T13:15:34;10.68;;;4.70;;
44036;SDS011;62488;-37.670;-63.532;2023-04-24T13:18:01;12.23;;;3.88;;
44036;SDS011;62488;-37.670;-63.532;2023-04-24T13:20:30;12.45;;;4.28;;
44036;SDS011;62488;-37.670;-63.532;2023-04-24T13:22:57;8.40;;;3.75;;
44036;SDS011;62488;-37.670;-63.532;2023-04-24T13:25:24;11.30;;;3.97;;
44036;SDS011;62488;-37.670;-63.532;2023-04-24T13:27:51;12.93;;;4.57;;
44036;SDS011;62488;-37.670;-63.532;2023-04-24T13:30:19;15.13;;;4.72;;
44036;SDS011;62488;-37.670;-63.532;2023-04-24T13:32:46;17.75;;;4.55;;
44036;SDS011;62488;-37.670;-63.532;2023-04-24T13:35:13;10.95;;;4.32;;
44036;SDS011;62488;-37.670;-63.532;2023-04-24T13:37:40;15.85;;;4.75;;
44036;SDS011;62488;-37.670;-63.532;2023-04-24T13:40:07;15.00;;;5.20;;
44036;SDS011;62488;-37.670;-63.532;2023-04-24T13:42:34;12.13;;;4.40;;
44036;SDS011;62488;-37.670;-63.532;2023-04-24T13:45:01;15.07;;;4.75;;
44036;SDS011;62488;-37.670;-63.532;2023-04-24T13:47:29;19.88;;;5.53;;
44036;SDS011;62488;-37.670;-63.532;2023-04-24T13:49:56;15.18;;;5.20;;
44036;SDS011;62488;-37.670;-63.532;2023-04-24T13:52:23;17.85;;;5.20;;
44036;SDS011;62488;-37.670;-63.532;2023-04-24T13:54:50;10.77;;;3.85;;
44036;SDS011;62488;-37.670;-63.532;2023-04-24T13:57:17;11.25;;;4.75;;
44036;SDS011;62488;-37.670;-63.532;2023-04-24T13:59:44;9.80;;;4.22;;
44036;SDS011;62488;-37.670;-63.532;2023-04-24T14:02:11;8.95;;;4.35;;
44036;SDS011;62488;-37.670;-63.532;2023-04-24T14:04:39;14.80;;;4.78;;
44036;SDS011;62488;-37.670;-63.532;2023-04-24T14:07:06;12.77;;;4.60;;
44036;SDS011;62488;-37.670;-63.532;2023-04-24T14:09:33;13.82;;;5.32;;
44036;SDS011;62488;-37.670;-63.532;2023-04-24T14:12:00;13.15;;;5.10;;
44036;SDS011;62488;-37.670;-63.532;2023-04-24T14:14:28;10.07;;;5.63;;
44036;SDS011;62488;-37.670;-63.532;2023-04-24T14:16:55;12.40;;;4.38;;
44036;SDS011;62488;-37.670;-63.532;2023-04-24T14:19:23;13.52;;;6.07;;
44036;SDS011;62488;-37.670;-63.532;2023-04-24T14:21:50;17.48;;;7.88;;
44036;SDS011;62488;-37.670;-63.532;2023-04-24T14:24:17;21.17;;;6.50;;
44036;SDS011;62488;-37.670;-63.532;2023-04-24T14:26:44;20.60;;;6.93;;
44036;SDS011;62488;-37.670;-63.532;2023-04-24T14:29:11;20.35;;;8.25;;